メインページ
METAR-TAF:

METAR-TAF

空港 :

Rafha, サウジアラビア

緯度: 29-37N, 経度: 043-29E, 海抜: 449m

現時点の気象観測

当レポートは1時間1分前の20:00(UTC)に作成
西の風 5kt
気温 32°C
湿度 12%
気圧 1004 hPa
視程10km以上
1,500メートル以下は雲なし、積乱雲なし

METAR: OERF 212000Z 28005KT CAVOK 32/M01 Q1004

時間: 00:01 (21:01 UTC)

予報

当レポートは10時間1分前の11:00(UTC)に作成
予報は21日の 12時(UTC)から 22日の 18時(UTC)まで有効
北/北西の風 10kt、最大20ktの突風を伴う
視程: 7000m
21日の 12時(UTC)から 21日の 21時(UTC)まで一時的に
視程: 3000m
広範な塵, 風塵

TAF: OERF 211100Z 2112/2218 33010G20KT 7000 NSC TEMPO 2112/2121 3000 DU BLDU

4,000以上の空港の気象観測と天気予報(METAR報とTAF報)

利用可能な観測所は地図上に黄色い丸と赤い丸で示す。

丸の上にカーソルを重ねると観測所名を参照できる。

次にクリックすると気象観測と天気予報を参照できる。

マップの切り替え:黒色「×」印の緑ボタンをクリックして拡大、「-」印の緑ボタンをクリックして縮小、緑色の三角印をクリックして隣りの地図に切り替え


METAR-TAF: